Time;durP1;ratioP1;P1;durP2;ratioP2;P2;SDS_P1;SDS_P2;PMS_P1;PMS_P2;Temp;Humidity;BMP_temperature;BMP_pressure;BME280_temperature;BME280_humidity;BME280_pressure;Samples;Min_cycle;Max_cycle;Signal;HPM_P1;HPM_P2
2024/02/22 00:00:07;;;;;;;;;25.00;22.00;;;;;7.15;79.24;99703.84;6270184;20;3569021;-46
2024/02/22 00:02:35;;;;;;;;;31.50;23.00;;;;;7.21;78.98;99692.88;6272220;20;2862788;-53
2024/02/22 00:05:03;;;;;;;;;26.00;19.00;;;;;7.11;79.04;99680.88;6270882;20;2500266;-52
2024/02/22 00:07:32;;;;;;;;;22.00;19.67;;;;;6.96;80.64;99679.81;6277012;20;3564893;-46
2024/02/22 00:10:03;;;;;;;;;23.00;20.00;;;;;6.91;80.75;99682.69;6272424;20;3569073;-46
2024/02/22 00:12:37;;;;;;;;;23.00;21.50;;;;;6.85;81.01;99674.13;6272414;20;2834691;-47
2024/02/22 00:15:06;;;;;;;;;23.00;19.00;;;;;6.93;80.61;99663.97;6269348;20;2498194;-51
2024/02/22 00:17:35;;;;;;;;;21.33;20.00;;;;;6.90;80.63;99658.75;6275699;20;3566920;-46
2024/02/22 00:20:06;;;;;;;;;19.33;18.33;;;;;6.84;81.20;99649.22;6272011;20;3559675;-46
2024/02/22 00:22:34;;;;;;;;;20.50;20.00;;;;;6.68;81.74;99650.88;6273936;20;2500351;-48
2024/02/22 00:25:04;;;;;;;;;20.67;17.67;;;;;6.74;81.11;99646.13;6273231;20;3558577;-48
2024/02/22 00:27:35;;;;;;;;;23.67;18.00;;;;;6.84;80.50;99643.03;6271762;20;3566930;-46
2024/02/22 00:30:09;;;;;;;;;20.33;16.00;;;;;6.71;80.79;99642.72;6305726;20;3562857;-45
2024/02/22 00:32:37;;;;;;;;;21.50;17.50;;;;;6.76;80.44;99641.56;6310339;20;2830529;-46
2024/02/22 00:35:06;;;;;;;;;18.67;16.00;;;;;6.63;81.43;99642.22;6273613;20;3561712;-47
2024/02/22 00:37:35;;;;;;;;;19.33;14.00;;;;;6.68;81.35;99643.72;6305494;20;3555500;-45
2024/02/22 00:40:05;;;;;;;;;23.50;19.00;;;;;6.68;81.78;99642.88;6305581;20;2835759;-51
2024/02/22 00:42:33;;;;;;;;;19.00;16.00;;;;;6.55;81.58;99638.09;6275285;20;2831669;-47
2024/02/22 00:45:03;;;;;;;;;26.67;17.33;;;;;6.66;81.26;99640.28;6271157;20;3581549;-47
2024/02/22 00:47:31;;;;;;;;;19.00;15.00;;;;;6.60;81.71;99641.41;6274741;20;2812789;-49
2024/02/22 00:49:59;;;;;;;;;15.50;15.00;;;;;6.49;81.56;99641.06;6275765;20;2808756;-46
2024/02/22 00:52:29;;;;;;;;;16.00;15.00;;;;;6.52;81.36;99648.03;6276870;20;3553431;-47
2024/02/22 00:54:58;;;;;;;;;15.67;15.67;;;;;6.36;82.42;99638.06;6307806;20;3534758;-51
2024/02/22 00:57:26;;;;;;;;;16.00;16.00;;;;;6.47;81.86;99626.91;6307857;20;3558629;-44
2024/02/22 00:59:55;;;;;;;;;17.33;15.00;;;;;6.62;80.65;99621.81;6306776;20;3542026;-44
2024/02/22 01:02:26;;;;;;;;;19.00;14.00;;;;;6.51;80.90;99619.66;6310461;20;2810080;-46
2024/02/22 01:04:54;;;;;;;;;20.67;12.33;;;;;6.53;81.01;99617.75;6278016;20;3569028;-47
2024/02/22 01:07:23;;;;;;;;;20.00;14.67;;;;;6.63;79.65;99611.06;6309741;20;3540928;-45
2024/02/22 01:09:52;;;;;;;;;12.33;12.00;;;;;6.50;80.38;99610.78;6307223;20;2791958;-46
2024/02/22 01:12:20;;;;;;;;;20.00;12.00;;;;;6.55;81.09;99608.75;6314665;20;2811085;-48
2024/02/22 01:14:48;;;;;;;;;17.00;14.00;;;;;6.66;80.58;99602.94;6278573;20;3538836;-45
2024/02/22 01:17:16;;;;;;;;;14.00;12.00;;;;;6.53;80.67;99601.75;6312457;20;2798280;-45
2024/02/22 01:19:47;;;;;;;;;10.00;10.00;;;;;6.37;81.38;99598.94;6281155;20;2791915;-46
2024/02/22 01:22:16;;;;;;;;;19.67;16.67;;;;;6.42;81.33;99594.25;6281622;20;3563890;-45
2024/02/22 01:24:44;;;;;;;;;16.67;12.33;;;;;6.38;81.51;99592.69;6308922;20;2795117;-46
2024/02/22 01:27:13;;;;;;;;;14.67;14.00;;;;;6.49;80.99;99584.19;6309700;20;2788877;-45
2024/02/22 01:29:42;;;;;;;;;13.33;12.33;;;;;6.57;79.67;99582.88;6308765;20;2796619;-46
2024/02/22 01:32:12;;;;;;;;;14.80;13.20;;;;;6.37;81.08;99575.81;6334915;20;2812414;-46
2024/02/22 01:34:40;;;;;;;;;13.00;9.00;;;;;6.49;79.75;99573.50;6277827;20;2770101;-47
2024/02/22 01:37:08;;;;;;;;;15.67;14.67;;;;;6.18;80.80;99564.25;6279004;20;2809652;-47
2024/02/22 01:39:38;;;;;;;;;13.80;13.60;;;;;6.43;80.16;99563.16;6335105;20;2801311;-45
2024/02/22 01:42:06;;;;;;;;;16.00;15.00;;;;;6.28;80.67;99565.56;6277884;20;2814998;-46
2024/02/22 01:44:34;;;;;;;;;18.33;13.33;;;;;6.37;80.30;99562.50;6278956;20;3552359;-45
2024/02/22 01:47:02;;;;;;;;;17.50;13.50;;;;;6.27;80.38;99558.50;6311163;20;2805493;-46
2024/02/22 01:49:31;;;;;;;;;14.33;12.00;;;;;6.19;80.91;99544.69;6279841;20;3515512;-45
2024/02/22 01:52:03;;;;;;;;;18.67;14.67;;;;;6.26;81.13;99551.44;6308866;20;3536745;-47
2024/02/22 01:54:32;;;;;;;;;18.67;13.00;;;;;6.18;81.27;99542.06;6305548;20;3533607;-48
2024/02/22 01:57:01;;;;;;;;;15.67;14.33;;;;;6.11;81.62;99538.84;6306878;20;3528395;-46
2024/02/22 01:59:30;;;;;;;;;15.00;14.00;;;;;6.18;80.90;99536.75;6310396;20;2794164;-47
2024/02/22 02:01:59;;;;;;;;;19.00;14.00;;;;;6.23;81.30;99530.25;6307009;20;2810730;-47
2024/02/22 02:04:29;;;;;;;;;13.80;13.20;;;;;6.14;81.22;99533.34;6301299;20;2789915;-45
2024/02/22 02:06:59;;;;;;;;;17.00;12.00;;;;;6.14;81.15;99514.69;6280098;20;2799240;-45
2024/02/22 02:09:27;;;;;;;;;15.00;12.67;;;;;6.03;81.42;99511.63;6275362;20;3537828;-46
2024/02/22 02:11:56;;;;;;;;;15.67;13.33;;;;;5.96;81.88;99515.53;6309815;20;2794123;-46
2024/02/22 02:14:24;;;;;;;;;17.50;13.50;;;;;5.97;82.21;99506.59;6308608;20;2803417;-44
2024/02/22 02:16:52;;;;;;;;;17.67;14.67;;;;;5.72;82.75;99510.34;6276995;20;3552376;-45
2024/02/22 02:19:25;;;;;;;;;17.33;13.33;;;;;5.94;82.49;99508.47;6308071;20;3532587;-47
2024/02/22 02:22:49;;;;;;;;;19.00;18.67;;;;;5.98;82.05;99508.31;6307161;20;3548270;-45
2024/02/22 02:25:19;;;;;;;;;11.20;11.00;;;;;5.97;82.14;99501.28;6331209;20;2792014;-47
2024/02/22 02:27:47;;;;;;;;;14.00;12.00;;;;;5.90;82.29;99496.19;6278671;20;2798223;-45
2024/02/22 02:30:15;;;;;;;;;14.33;12.67;;;;;5.83;81.87;99494.75;6289255;20;1815960;-47
2024/02/22 02:32:45;;;;;;;;;13.80;11.40;;;;;5.92;81.75;99499.66;6332877;20;2790931;-47
2024/02/22 02:35:15;;;;;;;;;15.20;11.40;;;;;5.80;82.52;99500.22;6299904;20;2789845;-47
2024/02/22 02:37:44;;;;;;;;;14.00;12.20;;;;;5.81;82.33;99496.59;6302667;20;2794011;-46
2024/02/22 02:40:13;;;;;;;;;17.67;13.00;;;;;5.86;82.16;99494.59;6277137;20;3530551;-50
2024/02/22 02:42:41;;;;;;;;;13.00;11.33;;;;;5.77;83.24;99494.16;6308568;20;2786873;-51
2024/02/22 02:45:10;;;;;;;;;5.00;1.00;;;;;5.58;83.56;99489.66;6326876;20;1812795;-46
2024/02/22 02:47:38;;;;;;;;;21.50;13.00;;;;;5.88;82.17;99492.72;6309231;20;2819149;-46
2024/02/22 02:50:08;;;;;;;;;14.00;13.67;;;;;5.81;82.49;99491.28;6276406;20;2788973;-46
2024/02/22 02:52:36;;;;;;;;;18.67;13.00;;;;;5.73;82.65;99498.75;6306889;20;3530494;-47
2024/02/22 02:55:05;;;;;;;;;18.67;13.00;;;;;5.89;82.13;99489.13;6305607;20;3530424;-47
2024/02/22 02:57:33;;;;;;;;;17.50;13.00;;;;;5.93;81.28;99484.53;6310876;20;2827451;-47
2024/02/22 03:00:01;;;;;;;;;17.00;13.00;;;;;5.89;81.66;99489.13;6273385;20;2800345;-47
2024/02/22 03:02:33;;;;;;;;;11.71;9.71;;;;;5.80;82.00;99488.69;6316068;20;1808737;-45
2024/02/22 03:05:02;;;;;;;;;18.33;13.33;;;;;5.88;81.18;99487.41;6298697;20;3540895;-46
2024/02/22 03:07:30;;;;;;;;;14.67;12.67;;;;;5.85;82.18;99484.88;6305197;20;2783646;-48
2024/02/22 03:09:59;;;;;;;;;17.67;12.67;;;;;5.92;81.68;99489.00;6302664;20;3548301;-45
2024/02/22 03:12:27;;;;;;;;;14.00;13.00;;;;;5.76;82.44;99482.63;6306323;20;2796166;-47
2024/02/22 03:14:55;;;;;;;;;15.33;14.00;;;;;5.73;82.08;99482.75;6276431;20;3532301;-46
2024/02/22 03:17:25;;;;;;;;;9.40;7.40;;;;;5.87;81.86;99480.34;6332789;20;2748223;-46
2024/02/22 03:19:53;;;;;;;;;21.00;13.00;;;;;5.81;81.68;99471.75;6310385;20;2810701;-45
2024/02/22 03:22:23;;;;;;;;;12.60;12.60;;;;;5.83;81.81;99473.44;6297449;20;2791950;-45
2024/02/22 03:24:51;;;;;;;;;17.00;14.00;;;;;5.78;82.90;99475.44;6274280;20;2810760;-46
2024/02/22 03:27:21;;;;;;;;;16.33;13.00;;;;;5.71;83.78;99465.97;6275932;20;3524360;-42
2024/02/22 03:29:49;;;;;;;;;12.67;12.33;;;;;5.70;83.26;99472.25;6306689;20;2792014;-42
2024/02/22 03:32:17;;;;;;;;;18.00;13.00;;;;;5.43;84.40;99467.22;6306827;20;2801394;-42
2024/02/22 03:34:47;;;;;;;;;15.33;13.00;;;;;5.24;85.44;99471.63;6272002;20;3514886;-43
2024/02/22 03:37:17;;;;;;;;;19.60;14.20;;;;;5.33;85.71;99468.56;6331365;20;2796316;-43
2024/02/22 03:39:49;;;;;;;;;13.67;12.00;;;;;5.39;86.18;99456.78;6276067;20;2787833;-42
2024/02/22 03:42:18;;;;;;;;;12.00;11.00;;;;;5.16;86.26;99460.44;6305868;20;2789003;-42
2024/02/22 03:44:48;;;;;;;;;9.80;6.80;;;;;5.28;86.32;99454.59;6326440;20;2752374;-43
2024/02/22 03:47:16;;;;;;;;;20.50;12.00;;;;;5.39;85.60;99454.97;6310732;20;2809681;-42
2024/02/22 03:49:44;;;;;;;;;17.00;13.00;;;;;5.47;85.07;99450.16;6274940;20;2798190;-42
2024/02/22 03:52:13;;;;;;;;;14.00;12.50;;;;;5.09;87.18;99443.88;6309147;20;2789898;-42
2024/02/22 03:54:42;;;;;;;;;27.00;16.67;;;;;5.02;88.42;99447.72;6274718;20;2848203;-42
2024/02/22 03:57:11;;;;;;;;;13.80;12.40;;;;;5.37;87.05;99443.56;6329549;20;2790956;-41
2024/02/22 03:59:41;;;;;;;;;17.33;12.33;;;;;5.37;85.95;99440.00;6275688;20;2796156;-41
2024/02/22 04:02:09;;;;;;;;;16.00;13.33;;;;;5.23;86.07;99440.63;6302837;20;2798228;-41
2024/02/22 04:04:37;;;;;;;;;11.00;11.00;;;;;5.31;86.35;99433.16;6304996;20;2786858;-44
2024/02/22 04:07:07;;;;;;;;;17.20;12.60;;;;;5.09;86.69;99429.72;6300045;20;2801337;-41
2024/02/22 04:09:36;;;;;;;;;16.00;12.50;;;;;5.18;87.49;99429.31;6276413;20;2801326;-41
2024/02/22 04:12:05;;;;;;;;;12.50;11.00;;;;;4.67;89.22;99426.16;6273389;20;3412737;-43
2024/02/22 04:14:35;;;;;;;;;18.40;13.00;;;;;4.61;90.55;99424.59;6329112;20;2791912;-41
2024/02/22 04:17:03;;;;;;;;;16.50;12.50;;;;;4.69;90.51;99418.13;6271925;20;2818022;-42
2024/02/22 04:19:32;;;;;;;;;18.00;11.20;;;;;4.55;90.66;99402.72;6298283;20;2813266;-41
2024/02/22 04:22:02;;;;;;;;;13.40;11.40;;;;;5.00;89.29;99396.38;6296686;20;2802369;-41
2024/02/22 04:24:31;;;;;;;;;17.00;12.00;;;;;4.99;89.08;99395.50;6275285;20;2809999;-43
2024/02/22 04:26:59;;;;;;;;;15.00;12.00;;;;;5.16;87.64;99402.78;6304145;20;2795097;-42
2024/02/22 04:29:27;;;;;;;;;13.50;11.00;;;;;5.08;87.95;99383.59;6274254;20;2775301;-43
2024/02/22 04:31:54;;;;;;;;;13.00;12.00;;;;;5.12;86.99;99384.34;6273459;20;2786728;-42
2024/02/22 04:34:22;;;;;;;;;13.00;12.00;;;;;4.76;89.18;99382.34;6275719;20;2803474;-42
2024/02/22 04:36:50;;;;;;;;;11.00;11.00;;;;;4.76;89.01;99377.00;6276250;20;2790996;-41
2024/02/22 04:39:19;;;;;;;;;17.00;12.67;;;;;4.61;90.68;99383.88;6276044;20;2806720;-43
2024/02/22 04:41:47;;;;;;;;;18.00;12.33;;;;;4.92;89.22;99378.06;6305344;20;3528398;-42
2024/02/22 04:44:15;;;;;;;;;11.00;11.00;;;;;4.75;90.09;99375.28;6304188;20;2788807;-42
2024/02/22 04:46:44;;;;;;;;;18.67;12.67;;;;;4.39;91.16;99379.41;6275068;20;2815985;-45
2024/02/22 04:49:12;;;;;;;;;15.00;15.00;;;;;4.32;91.96;99372.66;6308501;20;2812946;-42
2024/02/22 04:51:41;;;;;;;;;14.80;14.00;;;;;4.70;92.06;99379.94;6299924;20;2804498;-45
2024/02/22 04:54:10;;;;;;;;;16.67;12.33;;;;;4.98;90.61;99372.50;6273721;20;2802434;-41
2024/02/22 04:56:38;;;;;;;;;11.50;11.50;;;;;5.13;88.68;99362.09;6303316;20;2811730;-42
2024/02/22 04:59:06;;;;;;;;;13.00;11.00;;;;;5.35;87.14;99364.69;6274711;20;2790241;-43
2024/02/22 05:01:34;;;;;;;;;17.00;13.33;;;;;5.22;87.30;99361.72;6268959;20;3538895;-43
2024/02/22 05:04:03;;;;;;;;;13.00;12.00;;;;;5.53;85.11;99358.53;6303924;20;2781638;-43
2024/02/22 05:06:35;;;;;;;;;11.29;10.57;;;;;5.55;84.44;99363.75;6316813;20;1808041;-44
2024/02/22 05:09:05;;;;;;;;;13.60;11.00;;;;;5.49;84.68;99363.09;6330784;20;2793067;-42
2024/02/22 05:11:33;;;;;;;;;13.00;8.00;;;;;5.63;84.21;99359.78;6275111;20;2780511;-41
2024/02/22 05:14:01;;;;;;;;;2.50;2.50;;;;;5.71;83.81;99363.00;6290734;20;1816030;-42
2024/02/22 05:16:29;;;;;;;;;18.50;12.00;;;;;5.77;82.81;99358.31;6303779;20;2804965;-43
2024/02/22 05:18:58;;;;;;;;;7.25;7.25;;;;;5.77;82.95;99359.16;6294341;20;1819235;-44
2024/02/22 05:21:27;;;;;;;;;11.80;9.80;;;;;5.81;83.26;99363.41;6328507;20;2779839;-46
2024/02/22 05:23:58;;;;;;;;;10.17;8.00;;;;;5.75;82.40;99353.03;6315650;20;1816703;-43
2024/02/22 05:26:28;;;;;;;;;14.40;8.80;;;;;5.73;82.52;99349.59;6298387;20;2751356;-45
2024/02/22 05:28:59;;;;;;;;;15.50;9.50;;;;;5.79;81.72;99349.28;6346165;20;1811860;-44
2024/02/22 05:31:28;;;;;;;;;16.50;12.00;;;;;5.85;81.78;99350.81;6273801;20;2800305;-44
2024/02/22 05:33:56;;;;;;;;;9.00;9.00;;;;;5.94;80.78;99356.59;6272935;20;2750308;-45
2024/02/22 05:36:24;;;;;;;;;7.50;7.00;;;;;6.05;81.09;99349.88;6275527;20;2744097;-43
2024/02/22 05:38:54;;;;;;;;;14.00;11.80;;;;;6.00;81.07;99342.09;6331258;20;2783645;-41
2024/02/22 05:41:21;;;;;;;;;8.00;7.00;;;;;5.89;81.95;99345.25;6277982;20;2744070;-42
2024/02/22 05:43:49;;;;;;;;;14.00;11.00;;;;;5.91;81.66;99348.72;6309656;20;2794042;-42
2024/02/22 05:46:17;;;;;;;;;9.00;9.00;;;;;5.93;81.58;99346.88;6281435;20;2739967;-43
2024/02/22 05:48:45;;;;;;;;;14.50;10.50;;;;;6.08;81.31;99345.28;6307769;20;2783581;-41
2024/02/22 05:51:12;;;;;;;;;12.50;9.00;;;;;6.04;80.11;99342.84;6277419;20;2768057;-43
2024/02/22 05:53:42;;;;;;;;;11.00;11.00;;;;;6.13;80.13;99337.03;6273692;20;2794014;-45
2024/02/22 05:56:10;;;;;;;;;9.50;9.50;;;;;6.19;80.00;99344.75;6280524;20;2757572;-44
2024/02/22 05:58:38;;;;;;;;;13.00;10.00;;;;;6.15;79.74;99340.50;6278511;20;2791974;-41
2024/02/22 06:01:05;;;;;;;;;14.50;9.50;;;;;6.26;79.40;99345.28;6280775;20;2771129;-43
2024/02/22 06:03:34;;;;;;;;;17.00;10.00;;;;;6.23;79.56;99343.66;6278540;20;2789930;-45
2024/02/22 06:06:02;;;;;;;;;10.00;10.00;;;;;6.31;79.10;99332.59;6278568;20;2759762;-46
2024/02/22 06:08:32;;;;;;;;;9.40;8.00;;;;;6.38;78.93;99337.56;6307499;20;2750345;-44
2024/02/22 06:11:00;;;;;;;;;11.00;9.00;;;;;6.50;78.22;99332.53;6310021;20;2769072;-47
2024/02/22 06:13:28;;;;;;;;;13.00;10.00;;;;;6.48;78.79;99337.09;6277606;20;2791285;-58
2024/02/22 06:15:56;;;;;;;;;13.00;11.00;;;;;6.35;79.78;99324.38;6278532;20;2790905;-57
2024/02/22 06:18:24;;;;;;;;;18.50;14.00;;;;;6.27;79.82;99326.56;6279867;20;2806564;-57
2024/02/22 06:20:53;;;;;;;;;14.33;11.67;;;;;6.05;81.06;99323.22;6278794;20;3518084;-57
2024/02/22 06:23:21;;;;;;;;;18.00;12.50;;;;;6.01;80.62;99329.66;6309373;20;2800293;-57
2024/02/22 06:25:51;;;;;;;;;19.67;15.00;;;;;5.95;81.67;99317.50;6279107;20;3544055;-57
2024/02/22 06:28:18;;;;;;;;;14.00;14.00;;;;;6.06;81.59;99319.63;6317396;20;2682587;-44
2024/02/22 06:30:46;;;;;;;;;16.00;16.00;;;;;6.13;81.73;99316.59;6308279;20;2813828;-42
2024/02/22 06:33:16;;;;;;;;;15.00;11.60;;;;;6.18;81.86;99311.00;6303453;20;2800365;-44
2024/02/22 06:35:45;;;;;;;;;19.67;17.00;;;;;6.10;81.07;99307.88;6278627;20;3545177;-42
2024/02/22 06:38:12;;;;;;;;;19.00;18.00;;;;;6.11;82.05;99312.28;6309812;20;2820539;-44
2024/02/22 06:40:49;;;;;;;;;25.00;21.50;;;;;5.94;82.72;99300.63;6276447;20;2832687;-43
2024/02/22 06:43:18;;;;;;;;;17.67;17.67;;;;;5.98;82.95;99300.47;6277140;20;3554435;-45
2024/02/22 06:45:46;;;;;;;;;14.00;9.00;;;;;6.19;83.46;99293.22;6304394;20;2776315;-42
2024/02/22 06:48:14;;;;;;;;;23.50;20.50;;;;;6.02;83.09;99296.72;6274093;20;2835766;-43
2024/02/22 06:50:45;;;;;;;;;18.40;14.80;;;;;6.15;82.50;99300.50;6318182;20;1925440;-42
2024/02/22 06:53:13;;;;;;;;;15.00;14.00;;;;;6.21;81.37;99302.00;6306200;20;2804477;-46
2024/02/22 06:55:43;;;;;;;;;22.67;18.00;;;;;6.50;81.73;99300.53;6278298;20;3558052;-42
2024/02/22 06:58:14;;;;;;;;;18.00;17.00;;;;;6.58;81.26;99301.88;6277789;20;2825350;-43
2024/02/22 07:00:42;;;;;;;;;23.67;17.00;;;;;6.53;81.83;99297.69;6276609;20;3551361;-44
2024/02/22 07:03:11;;;;;;;;;25.50;18.00;;;;;6.68;80.97;99301.41;6309184;20;2857650;-45
2024/02/22 07:05:38;;;;;;;;;16.00;14.00;;;;;6.81;80.03;99297.16;6280836;20;2811742;-46
2024/02/22 07:08:07;;;;;;;;;20.50;19.00;;;;;6.91;80.12;99292.19;6278927;20;2830528;-43
2024/02/22 07:10:36;;;;;;;;;17.33;15.00;;;;;6.88;80.10;99295.88;6278278;20;3548207;-44
2024/02/22 07:13:04;;;;;;;;;22.00;17.00;;;;;7.10;79.23;99292.94;6306375;20;3560665;-44
2024/02/22 07:15:32;;;;;;;;;20.00;16.00;;;;;7.01;79.73;99285.44;6277784;20;2831528;-44
2024/02/22 07:18:00;;;;;;;;;21.00;14.50;;;;;7.50;77.81;99290.75;6274913;20;2817040;-43
2024/02/22 07:20:31;;;;;;;;;18.00;18.00;;;;;7.55;77.32;99272.66;6276856;20;3552339;-43
2024/02/22 07:23:01;;;;;;;;;17.33;14.67;;;;;7.63;76.40;99275.75;6277170;20;3549450;-44
2024/02/22 07:25:29;;;;;;;;;18.00;16.00;;;;;7.69;76.22;99270.09;6309798;20;2824637;-44
2024/02/22 07:27:57;;;;;;;;;21.50;16.00;;;;;7.52;76.36;99272.84;6276424;20;2823311;-47
2024/02/22 07:30:27;;;;;;;;;21.67;18.00;;;;;7.82;75.41;99270.25;6276905;20;3561888;-45
2024/02/22 07:32:56;;;;;;;;;17.33;16.00;;;;;8.04;75.23;99258.34;6276677;20;3552468;-43
2024/02/22 07:35:25;;;;;;;;;20.33;16.67;;;;;7.68;76.19;99256.81;6274439;20;3558623;-43
2024/02/22 07:37:54;;;;;;;;;16.00;13.00;;;;;8.13;73.32;99250.63;6307880;20;2794168;-44
2024/02/22 07:40:23;;;;;;;;;11.00;11.00;;;;;8.14;70.90;99244.34;6306649;20;2787827;-44
2024/02/22 07:42:51;;;;;;;;;16.67;12.00;;;;;8.12;70.52;99251.56;6276726;20;2805546;-44
2024/02/22 07:45:27;;;;;;;;;10.00;10.00;;;;;8.42;68.85;99253.41;6330919;20;2792076;-44
2024/02/22 07:47:56;;;;;;;;;12.00;9.00;;;;;8.31;68.54;99245.16;6278524;20;2771257;-42
2024/02/22 07:50:28;;;;;;;;;12.20;10.60;;;;;8.44;68.11;99248.00;6301810;20;2781600;-44
2024/02/22 07:52:55;;;;;;;;;12.00;11.00;;;;;8.62;67.25;99238.00;6278299;20;2797171;-43
2024/02/22 07:55:25;;;;;;;;;12.20;10.60;;;;;8.92;66.01;99236.09;6299094;20;2796114;-44
2024/02/22 07:57:53;;;;;;;;;14.00;10.00;;;;;8.63;66.36;99235.22;6281970;20;2798244;-43
2024/02/22 08:00:21;;;;;;;;;14.00;11.00;;;;;9.02;65.15;99241.75;6276928;20;2793013;-45
2024/02/22 08:02:49;;;;;;;;;13.00;11.33;;;;;8.81;65.43;99225.19;6273510;20;2789941;-43
2024/02/22 08:05:19;;;;;;;;;13.80;11.80;;;;;9.28;64.96;99221.34;6330492;20;2796260;-47
2024/02/22 08:07:47;;;;;;;;;11.00;11.00;;;;;9.28;64.00;99226.72;6276897;20;2791950;-43
2024/02/22 08:10:17;;;;;;;;;13.67;13.67;;;;;9.18;64.28;99223.75;6308360;20;2802533;-44
2024/02/22 08:12:46;;;;;;;;;16.33;13.00;;;;;9.13;64.20;99216.97;6306294;20;3524368;-43
2024/02/22 08:15:15;;;;;;;;;15.00;12.00;;;;;9.23;64.52;99218.09;6305953;20;2778438;-43
2024/02/22 08:17:44;;;;;;;;;20.67;14.00;;;;;9.55;63.36;99215.19;6276109;20;3538853;-46
2024/02/22 08:20:14;;;;;;;;;19.00;12.50;;;;;9.54;63.37;99211.66;6307205;20;2810853;-43
2024/02/22 08:22:43;;;;;;;;;12.00;12.00;;;;;9.14;64.35;99210.66;6276456;20;3521145;-42
2024/02/22 08:25:12;;;;;;;;;13.67;12.00;;;;;9.53;63.54;99201.91;6306179;20;3520130;-43
2024/02/22 08:27:41;;;;;;;;;12.67;11.00;;;;;9.07;64.45;99201.28;6307116;20;2805521;-42
2024/02/22 08:30:25;;;;;;;;;14.00;14.00;;;;;9.02;64.89;99194.41;6312285;20;2808659;-43
2024/02/22 08:32:53;;;;;;;;;14.50;13.50;;;;;9.47;64.25;99188.88;6277662;20;2793789;-42
2024/02/22 08:35:22;;;;;;;;;16.67;14.33;;;;;9.62;63.22;99181.66;6274177;20;3546188;-42
2024/02/22 08:37:50;;;;;;;;;16.00;14.00;;;;;9.43;63.89;99182.88;6305014;20;2498224;-42
2024/02/22 08:40:19;;;;;;;;;14.33;13.00;;;;;9.35;64.22;99174.47;6273903;20;3510670;-43
2024/02/22 08:43:09;;;;;;;;;16.67;14.67;;;;;9.88;62.72;99175.44;6308553;20;3562769;-43
2024/02/22 08:45:37;;;;;;;;;14.50;14.50;;;;;9.62;63.31;99165.59;6282345;20;2804480;-42
2024/02/22 08:48:07;;;;;;;;;14.67;13.00;;;;;9.89;63.03;99174.44;6276684;20;3523210;-42
2024/02/22 08:50:36;;;;;;;;;14.67;13.00;;;;;9.82;62.61;99165.13;6304402;20;3524286;-42
2024/02/22 08:53:05;;;;;;;;;15.67;15.67;;;;;9.56;61.95;99156.13;6308855;20;3554516;-42
2024/02/22 08:55:33;;;;;;;;;14.50;14.50;;;;;9.96;61.55;99160.66;6275125;20;2500295;-45
2024/02/22 08:58:01;;;;;;;;;16.50;16.50;;;;;9.58;62.66;99147.97;6277137;20;2822170;-43
2024/02/22 09:00:30;;;;;;;;;16.33;15.33;;;;;9.72;61.95;99153.28;6273720;20;3548292;-44
2024/02/22 09:02:59;;;;;;;;;15.67;15.67;;;;;9.58;62.55;99150.66;6273044;20;3549428;-43
2024/02/22 09:05:27;;;;;;;;;21.00;14.00;;;;;9.94;61.69;99155.38;6275919;20;3563811;-44
2024/02/22 09:07:55;;;;;;;;;17.50;16.50;;;;;9.93;63.02;99147.47;6274550;20;2498207;-44
2024/02/22 09:10:24;;;;;;;;;17.67;16.00;;;;;10.02;61.48;99142.31;6276443;20;3566980;-44
2024/02/22 09:12:53;;;;;;;;;18.00;15.00;;;;;10.68;59.86;99145.81;6305104;20;3545578;-44
2024/02/22 09:15:23;;;;;;;;;18.33;15.00;;;;;10.64;59.28;99135.41;6310861;20;3546081;-44
2024/02/22 09:17:51;;;;;;;;;19.33;18.00;;;;;10.38;59.14;99147.97;6308084;20;3560689;-43
2024/02/22 09:20:20;;;;;;;;;16.33;16.33;;;;;10.66;58.73;99144.19;6280611;20;3550273;-45
2024/02/22 09:22:49;;;;;;;;;14.67;14.67;;;;;10.60;58.55;99140.13;6278993;20;2801386;-43
2024/02/22 09:25:18;;;;;;;;;18.67;17.00;;;;;10.32;58.97;99134.03;6310311;20;3561790;-43
2024/02/22 09:27:46;;;;;;;;;19.50;16.50;;;;;10.72;58.47;99120.47;6309206;20;2491953;-43
2024/02/22 09:30:14;;;;;;;;;18.50;15.00;;;;;10.27;59.55;99114.69;6285363;20;2819053;-43
2024/02/22 09:32:43;;;;;;;;;17.33;14.67;;;;;10.66;58.91;99107.47;6279607;20;3572150;-43
2024/02/22 09:35:12;;;;;;;;;17.50;16.00;;;;;10.66;58.48;99111.97;6277349;20;2500405;-43
2024/02/22 09:37:42;;;;;;;;;18.00;16.67;;;;;10.82;58.63;99109.06;6278912;20;3562910;-45
2024/02/22 09:40:15;;;;;;;;;15.00;13.33;;;;;10.92;58.08;99099.38;6310443;20;3531618;-43
2024/02/22 09:42:44;;;;;;;;;18.00;16.50;;;;;11.15;56.78;99105.75;6308817;20;2496657;-46
2024/02/22 09:45:14;;;;;;;;;16.67;16.67;;;;;11.24;56.54;99101.53;6275708;20;3564229;-43
2024/02/22 09:47:45;;;;;;;;;19.50;18.00;;;;;11.41;56.24;99101.16;6280780;20;2837803;-42
2024/02/22 09:50:14;;;;;;;;;17.00;15.00;;;;;11.54;55.46;99085.81;6279454;20;2823225;-42
2024/02/22 09:52:43;;;;;;;;;19.50;19.50;;;;;11.74;55.75;99092.41;6282305;20;2841950;-45
2024/02/22 09:55:14;;;;;;;;;20.00;17.50;;;;;12.19;53.82;99088.97;6274204;20;2833690;-43
2024/02/22 09:57:43;;;;;;;;;11.00;11.00;;;;;12.14;54.56;99092.06;6306421;20;2796085;-42
2024/02/22 10:00:15;;;;;;;;;20.00;18.50;;;;;11.89;55.30;99090.38;6280827;20;2837799;-42
2024/02/22 10:02:48;;;;;;;;;33.67;31.33;;;;;12.06;54.72;99075.66;6277677;20;3612846;-45
2024/02/22 10:05:19;;;;;;;;;36.00;31.33;;;;;12.34;54.58;99068.94;6309764;20;3590922;-43
2024/02/22 10:07:48;;;;;;;;;23.00;20.00;;;;;12.26;54.21;99049.84;6275227;20;2500275;-42
2024/02/22 10:10:25;;;;;;;;;19.00;17.00;;;;;12.03;54.35;99054.34;6280801;20;2834723;-44
2024/02/22 10:12:54;;;;;;;;;25.00;19.50;;;;;12.41;55.06;99054.03;6280735;20;2844079;-44
2024/02/22 10:15:27;;;;;;;;;22.00;18.00;;;;;12.23;54.55;99055.47;6279108;20;2830638;-43
2024/02/22 10:17:56;;;;;;;;;23.00;20.50;;;;;12.35;54.81;99042.88;6279538;20;2842054;-43
2024/02/22 10:20:32;;;;;;;;;22.00;18.50;;;;;12.05;55.78;99026.34;6281058;20;2827403;-57
2024/02/22 10:23:13;;;;;;;;;23.00;21.50;;;;;12.39;55.05;99022.81;6279665;20;2835845;-55
2024/02/22 10:25:42;;;;;;;;;20.50;18.00;;;;;12.35;55.09;99011.44;6276678;20;2839976;-56
2024/02/22 10:28:17;;;;;;;;;21.50;18.50;;;;;12.32;55.24;99011.66;6279516;20;2839869;-55
2024/02/22 10:30:45;;;;;;;;;23.00;19.00;;;;;12.47;54.76;99004.22;6276217;20;2489904;-56
2024/02/22 10:33:13;;;;;;;;;24.50;21.50;;;;;12.37;55.21;98993.31;6278417;20;2841969;-55
2024/02/22 10:35:44;;;;;;;;;25.00;22.00;;;;;12.87;54.33;98988.34;6275138;20;2846125;-55
2024/02/22 10:38:15;;;;;;;;;19.50;17.50;;;;;12.59;53.65;98970.06;6277403;20;2837923;-54
2024/02/22 10:40:44;;;;;;;;;13.00;13.00;;;;;12.80;53.97;98972.84;6283206;20;2801318;-57
2024/02/22 10:43:14;;;;;;;;;25.00;24.33;;;;;13.02;53.57;98971.91;6279302;20;2845127;-56
2024/02/22 10:45:45;;;;;;;;;25.50;21.00;;;;;12.93;53.90;98974.41;6307774;20;2847130;-55
2024/02/22 10:48:14;;;;;;;;;22.00;18.00;;;;;12.99;52.97;98966.78;6278063;20;2825325;-56
2024/02/22 10:50:44;;;;;;;;;24.00;20.00;;;;;12.79;53.21;98950.41;6277246;20;2852392;-53
2024/02/22 10:53:16;;;;;;;;;24.00;21.00;;;;;13.25;52.84;98946.59;6307058;20;2838874;-55
2024/02/22 10:55:50;;;;;;;;;22.33;20.00;;;;;13.75;52.17;98949.53;6278667;20;2831541;-56
2024/02/22 10:58:23;;;;;;;;;19.00;19.00;;;;;13.08;52.82;98929.13;6310023;20;3569030;-53
2024/02/22 11:00:58;;;;;;;;;23.67;22.67;;;;;13.01;52.70;98919.03;6309795;20;3581577;-56
2024/02/22 11:03:28;;;;;;;;;21.50;21.00;;;;;12.63;53.77;98914.97;6274304;20;2843028;-54
2024/02/22 11:05:58;;;;;;;;;26.67;23.67;;;;;13.31;52.60;98916.44;6280188;20;3576447;-57
2024/02/22 11:08:30;;;;;;;;;31.33;24.00;;;;;13.41;52.38;98904.88;6276394;20;3621144;-53
2024/02/22 11:11:07;;;;;;;;;22.33;20.00;;;;;13.50;51.59;98912.16;6311204;20;3573267;-55
2024/02/22 11:13:36;;;;;;;;;18.50;17.00;;;;;13.31;50.96;98907.50;6274079;20;2831655;-55
2024/02/22 11:16:17;;;;;;;;;21.00;20.00;;;;;13.17;50.87;98905.94;6279116;20;2842415;-56
2024/02/22 11:18:49;;;;;;;;;24.00;20.00;;;;;13.44;50.67;98900.06;6277938;20;3566056;-53